sensor_id;sensor_type;location;lat;lon;timestamp;pressure;altitude;pressure_sealevel;temperature;humidity
40940;BME280;26666;50.156;7.700;2023-06-04T00:04:34;100736.25;;;15.90;58.07
40940;BME280;26666;50.156;7.700;2023-06-04T00:09:38;100748.91;;;15.88;58.55
40940;BME280;26666;50.156;7.700;2023-06-04T00:14:39;100747.22;;;15.87;58.54
40940;BME280;26666;50.156;7.700;2023-06-04T00:19:41;100740.22;;;15.86;59.05
40940;BME280;26666;50.156;7.700;2023-06-04T00:24:44;100736.66;;;15.77;59.23
40940;BME280;26666;50.156;7.700;2023-06-04T00:29:46;100737.59;;;15.68;59.20
40940;BME280;26666;50.156;7.700;2023-06-04T00:34:50;100742.53;;;15.63;59.64
40940;BME280;26666;50.156;7.700;2023-06-04T00:39:53;100738.19;;;15.62;59.57
40940;BME280;26666;50.156;7.700;2023-06-04T00:44:55;100744.47;;;15.53;59.44
40940;BME280;26666;50.156;7.700;2023-06-04T00:49:57;100743.28;;;15.55;59.34
40940;BME280;26666;50.156;7.700;2023-06-04T00:55:00;100740.44;;;15.49;59.55
40940;BME280;26666;50.156;7.700;2023-06-04T01:00:02;100742.63;;;15.53;59.43
40940;BME280;26666;50.156;7.700;2023-06-04T01:05:11;100739.22;;;15.43;59.77
40940;BME280;26666;50.156;7.700;2023-06-04T01:10:17;100736.31;;;15.36;60.11
40940;BME280;26666;50.156;7.700;2023-06-04T01:15:19;100741.63;;;15.36;60.20
40940;BME280;26666;50.156;7.700;2023-06-04T01:20:25;100743.84;;;15.41;59.93
40940;BME280;26666;50.156;7.700;2023-06-04T01:25:36;100745.53;;;15.24;60.06
40940;BME280;26666;50.156;7.700;2023-06-04T01:30:40;100759.53;;;15.26;60.13
40940;BME280;26666;50.156;7.700;2023-06-04T01:35:42;100750.31;;;15.21;60.60
40940;BME280;26666;50.156;7.700;2023-06-04T01:40:45;100745.28;;;15.17;60.79
40940;BME280;26666;50.156;7.700;2023-06-04T01:45:48;100743.38;;;15.10;60.78
40940;BME280;26666;50.156;7.700;2023-06-04T01:50:50;100742.19;;;15.04;60.58
40940;BME280;26666;50.156;7.700;2023-06-04T01:55:53;100743.00;;;15.05;60.84
40940;BME280;26666;50.156;7.700;2023-06-04T02:00:55;100750.84;;;15.06;60.63
40940;BME280;26666;50.156;7.700;2023-06-04T02:05:57;100755.56;;;14.94;60.69
40940;BME280;26666;50.156;7.700;2023-06-04T02:11:00;100749.38;;;14.94;60.88
40940;BME280;26666;50.156;7.700;2023-06-04T02:16:01;100748.13;;;14.88;60.67
40940;BME280;26666;50.156;7.700;2023-06-04T02:21:04;100756.44;;;14.85;60.79
40940;BME280;26666;50.156;7.700;2023-06-04T02:26:07;100760.81;;;14.76;60.61
40940;BME280;26666;50.156;7.700;2023-06-04T02:31:09;100761.47;;;14.61;61.30
40940;BME280;26666;50.156;7.700;2023-06-04T02:36:11;100758.75;;;14.70;61.05
40940;BME280;26666;50.156;7.700;2023-06-04T02:41:14;100764.94;;;14.61;61.25
40940;BME280;26666;50.156;7.700;2023-06-04T02:46:15;100765.25;;;14.58;61.45
40940;BME280;26666;50.156;7.700;2023-06-04T02:51:17;100753.06;;;14.65;61.11
40940;BME280;26666;50.156;7.700;2023-06-04T02:56:20;100767.34;;;14.54;61.31
40940;BME280;26666;50.156;7.700;2023-06-04T03:01:22;100761.88;;;14.56;61.12
40940;BME280;26666;50.156;7.700;2023-06-04T03:06:24;100761.28;;;14.34;61.56
40940;BME280;26666;50.156;7.700;2023-06-04T03:11:28;100763.94;;;14.34;61.58
40940;BME280;26666;50.156;7.700;2023-06-04T03:16:30;100766.56;;;14.44;61.22
40940;BME280;26666;50.156;7.700;2023-06-04T03:21:32;100768.66;;;14.40;61.46
40940;BME280;26666;50.156;7.700;2023-06-04T03:26:35;100751.34;;;14.36;61.16
40940;BME280;26666;50.156;7.700;2023-06-04T03:31:37;100759.44;;;14.35;61.47
40940;BME280;26666;50.156;7.700;2023-06-04T03:36:39;100760.59;;;14.32;61.77
40940;BME280;26666;50.156;7.700;2023-06-04T03:41:42;100765.50;;;14.27;61.39
40940;BME280;26666;50.156;7.700;2023-06-04T03:46:45;100770.66;;;14.29;61.99
40940;BME280;26666;50.156;7.700;2023-06-04T03:51:46;100770.91;;;14.35;62.01
40940;BME280;26666;50.156;7.700;2023-06-04T03:56:50;100766.28;;;14.37;62.17
40940;BME280;26666;50.156;7.700;2023-06-04T04:01:52;100772.19;;;14.31;62.13
40940;BME280;26666;50.156;7.700;2023-06-04T04:06:54;100774.22;;;14.47;62.56
40940;BME280;26666;50.156;7.700;2023-06-04T04:11:57;100761.41;;;14.33;62.10
40940;BME280;26666;50.156;7.700;2023-06-04T04:16:59;100769.38;;;14.33;61.21
40940;BME280;26666;50.156;7.700;2023-06-04T04:22:01;100777.09;;;14.36;61.90
40940;BME280;26666;50.156;7.700;2023-06-04T04:27:04;100778.59;;;14.38;61.91
40940;BME280;26666;50.156;7.700;2023-06-04T04:32:06;100777.09;;;14.36;61.78
40940;BME280;26666;50.156;7.700;2023-06-04T04:37:08;100784.03;;;14.47;61.99
40940;BME280;26666;50.156;7.700;2023-06-04T04:42:11;100777.38;;;14.33;61.53
40940;BME280;26666;50.156;7.700;2023-06-04T04:47:13;100772.88;;;14.33;62.08
40940;BME280;26666;50.156;7.700;2023-06-04T04:52:15;100782.75;;;14.51;63.29
40940;BME280;26666;50.156;7.700;2023-06-04T04:57:18;100786.59;;;14.76;62.28
40940;BME280;26666;50.156;7.700;2023-06-04T05:02:19;100794.13;;;15.08;61.62
40940;BME280;26666;50.156;7.700;2023-06-04T05:07:21;100780.72;;;15.72;60.38
40940;BME280;26666;50.156;7.700;2023-06-04T05:12:25;100782.53;;;16.42;58.79
40940;BME280;26666;50.156;7.700;2023-06-04T05:17:26;100797.38;;;16.79;58.01
40940;BME280;26666;50.156;7.700;2023-06-04T05:22:28;100796.75;;;17.36;56.70
40940;BME280;26666;50.156;7.700;2023-06-04T05:27:31;100796.59;;;17.53;56.26
40940;BME280;26666;50.156;7.700;2023-06-04T05:32:33;100798.59;;;18.09;55.93
40940;BME280;26666;50.156;7.700;2023-06-04T05:37:36;100801.53;;;18.47;55.21
40940;BME280;26666;50.156;7.700;2023-06-04T05:42:41;100795.06;;;18.81;54.63
40940;BME280;26666;50.156;7.700;2023-06-04T05:47:42;100801.69;;;19.24;55.11
40940;BME280;26666;50.156;7.700;2023-06-04T05:52:44;100803.31;;;19.57;54.68
40940;BME280;26666;50.156;7.700;2023-06-04T05:57:47;100811.50;;;20.01;54.27
40940;BME280;26666;50.156;7.700;2023-06-04T06:02:50;100806.44;;;20.21;54.04
40940;BME280;26666;50.156;7.700;2023-06-04T06:07:51;100805.72;;;20.57;53.50
40940;BME280;26666;50.156;7.700;2023-06-04T06:12:54;100805.69;;;21.02;52.69
40940;BME280;26666;50.156;7.700;2023-06-04T06:17:56;100801.94;;;21.18;51.70
40940;BME280;26666;50.156;7.700;2023-06-04T06:23:05;100805.09;;;21.43;50.98
40940;BME280;26666;50.156;7.700;2023-06-04T06:28:09;100809.78;;;21.56;51.23
40940;BME280;26666;50.156;7.700;2023-06-04T06:33:10;100813.75;;;21.81;49.57
40940;BME280;26666;50.156;7.700;2023-06-04T06:38:12;100819.69;;;21.98;51.20
40940;BME280;26666;50.156;7.700;2023-06-04T06:43:16;100813.97;;;22.08;49.34
40940;BME280;26666;50.156;7.700;2023-06-04T06:48:18;100817.28;;;22.10;50.80
40940;BME280;26666;50.156;7.700;2023-06-04T06:53:20;100817.16;;;22.47;47.98
40940;BME280;26666;50.156;7.700;2023-06-04T06:58:23;100811.91;;;22.80;48.42
40940;BME280;26666;50.156;7.700;2023-06-04T07:03:25;100813.97;;;22.71;49.27
40940;BME280;26666;50.156;7.700;2023-06-04T07:08:26;100814.56;;;22.67;47.55
40940;BME280;26666;50.156;7.700;2023-06-04T07:13:29;100814.31;;;23.03;46.80
40940;BME280;26666;50.156;7.700;2023-06-04T07:18:31;100815.09;;;22.97;48.32
40940;BME280;26666;50.156;7.700;2023-06-04T07:23:33;100823.28;;;23.17;47.56
40940;BME280;26666;50.156;7.700;2023-06-04T07:28:36;100809.19;;;23.08;45.80
40940;BME280;26666;50.156;7.700;2023-06-04T07:33:38;100812.72;;;23.29;45.48
40940;BME280;26666;50.156;7.700;2023-06-04T07:38:40;100809.72;;;23.92;42.03
40940;BME280;26666;50.156;7.700;2023-06-04T07:43:43;100809.31;;;23.88;43.69
40940;BME280;26666;50.156;7.700;2023-06-04T07:48:45;100811.94;;;23.48;44.61
40940;BME280;26666;50.156;7.700;2023-06-04T07:53:47;100804.19;;;23.05;45.04
40940;BME280;26666;50.156;7.700;2023-06-04T07:58:50;100803.59;;;23.10;42.80
40940;BME280;26666;50.156;7.700;2023-06-04T08:03:52;100803.03;;;22.79;44.91
40940;BME280;26666;50.156;7.700;2023-06-04T08:08:54;100808.22;;;22.81;44.03
40940;BME280;26666;50.156;7.700;2023-06-04T08:13:57;100799.44;;;22.72;45.14
40940;BME280;26666;50.156;7.700;2023-06-04T08:18:59;100811.47;;;22.70;44.86
40940;BME280;26666;50.156;7.700;2023-06-04T08:24:03;100798.09;;;22.48;44.51
40940;BME280;26666;50.156;7.700;2023-06-04T08:29:06;100796.16;;;22.07;46.04
40940;BME280;26666;50.156;7.700;2023-06-04T08:34:08;100792.88;;;22.12;46.83
40940;BME280;26666;50.156;7.700;2023-06-04T08:39:10;100797.09;;;21.71;47.42
40940;BME280;26666;50.156;7.700;2023-06-04T08:44:15;100796.53;;;21.33;48.51
40940;BME280;26666;50.156;7.700;2023-06-04T08:49:18;100794.03;;;21.74;46.29
40940;BME280;26666;50.156;7.700;2023-06-04T08:54:20;100798.03;;;21.57;47.84
40940;BME280;26666;50.156;7.700;2023-06-04T08:59:23;100795.66;;;21.47;47.00
40940;BME280;26666;50.156;7.700;2023-06-04T09:04:25;100791.19;;;21.18;47.85
40940;BME280;26666;50.156;7.700;2023-06-04T09:09:27;100797.22;;;21.20;47.26
40940;BME280;26666;50.156;7.700;2023-06-04T09:14:31;100799.41;;;21.31;46.68
40940;BME280;26666;50.156;7.700;2023-06-04T09:19:32;100798.66;;;21.01;48.28
40940;BME280;26666;50.156;7.700;2023-06-04T09:24:39;100802.31;;;21.15;45.57
40940;BME280;26666;50.156;7.700;2023-06-04T09:29:50;100794.38;;;21.06;47.27
40940;BME280;26666;50.156;7.700;2023-06-04T09:34:52;100797.34;;;21.12;44.42
40940;BME280;26666;50.156;7.700;2023-06-04T09:39:54;100788.56;;;21.24;44.54
40940;BME280;26666;50.156;7.700;2023-06-04T09:44:57;100789.47;;;21.32;44.59
40940;BME280;26666;50.156;7.700;2023-06-04T09:49:59;100785.31;;;21.29;44.30
40940;BME280;26666;50.156;7.700;2023-06-04T09:55:01;100782.50;;;21.16;44.76
40940;BME280;26666;50.156;7.700;2023-06-04T10:00:05;100787.91;;;21.01;46.29
40940;BME280;26666;50.156;7.700;2023-06-04T10:05:08;100781.34;;;21.25;45.41
40940;BME280;26666;50.156;7.700;2023-06-04T10:10:16;100786.47;;;20.83;46.99
40940;BME280;26666;50.156;7.700;2023-06-04T10:15:20;100780.53;;;20.88;46.09
40940;BME280;26666;50.156;7.700;2023-06-04T10:20:22;100779.47;;;21.04;45.54
40940;BME280;26666;50.156;7.700;2023-06-04T10:25:25;100769.50;;;20.98;44.62
40940;BME280;26666;50.156;7.700;2023-06-04T10:30:29;100777.69;;;20.75;44.95
40940;BME280;26666;50.156;7.700;2023-06-04T10:35:31;100764.50;;;20.80;44.98
40940;BME280;26666;50.156;7.700;2023-06-04T10:40:34;100777.72;;;20.96;43.75
40940;BME280;26666;50.156;7.700;2023-06-04T10:45:37;100778.63;;;20.67;45.56
40940;BME280;26666;50.156;7.700;2023-06-04T10:50:49;100766.47;;;20.86;44.44
40940;BME280;26666;50.156;7.700;2023-06-04T10:55:51;100763.63;;;20.73;43.70
40940;BME280;26666;50.156;7.700;2023-06-04T11:00:54;100774.25;;;20.81;43.77
40940;BME280;26666;50.156;7.700;2023-06-04T11:05:56;100780.63;;;20.80;44.24
40940;BME280;26666;50.156;7.700;2023-06-04T11:10:58;100769.59;;;20.90;44.67
40940;BME280;26666;50.156;7.700;2023-06-04T11:16:01;100775.75;;;20.68;45.40
40940;BME280;26666;50.156;7.700;2023-06-04T11:21:03;100771.31;;;20.61;44.72
40940;BME280;26666;50.156;7.700;2023-06-04T11:26:05;100774.34;;;20.58;44.48
40940;BME280;26666;50.156;7.700;2023-06-04T11:31:08;100763.13;;;20.84;43.06
40940;BME280;26666;50.156;7.700;2023-06-04T11:36:11;100754.34;;;20.75;44.00
40940;BME280;26666;50.156;7.700;2023-06-04T11:41:23;100777.53;;;20.61;44.83
40940;BME280;26666;50.156;7.700;2023-06-04T11:46:27;100754.72;;;21.08;43.15
40940;BME280;26666;50.156;7.700;2023-06-04T11:51:29;100745.13;;;20.63;44.66
40940;BME280;26666;50.156;7.700;2023-06-04T11:56:31;100759.38;;;20.63;44.23
40940;BME280;26666;50.156;7.700;2023-06-04T12:01:35;100755.66;;;20.35;45.97
40940;BME280;26666;50.156;7.700;2023-06-04T12:06:36;100743.91;;;20.21;47.27
40940;BME280;26666;50.156;7.700;2023-06-04T12:11:38;100737.03;;;20.33;47.03
40940;BME280;26666;50.156;7.700;2023-06-04T12:16:41;100735.50;;;20.24;46.31
40940;BME280;26666;50.156;7.700;2023-06-04T12:21:43;100738.91;;;20.33;46.73
40940;BME280;26666;50.156;7.700;2023-06-04T12:26:45;100728.38;;;20.16;46.50
40940;BME280;26666;50.156;7.700;2023-06-04T12:32:01;100737.72;;;20.20;45.22
40940;BME280;26666;50.156;7.700;2023-06-04T12:37:04;100732.25;;;20.28;46.36
40940;BME280;26666;50.156;7.700;2023-06-04T12:42:06;100730.38;;;20.29;46.22
40940;BME280;26666;50.156;7.700;2023-06-04T12:47:10;100747.41;;;20.21;46.95
40940;BME280;26666;50.156;7.700;2023-06-04T12:52:12;100729.84;;;20.34;46.62
40940;BME280;26666;50.156;7.700;2023-06-04T12:57:14;100731.31;;;20.21;46.24
40940;BME280;26666;50.156;7.700;2023-06-04T13:02:17;100732.25;;;20.28;45.95
40940;BME280;26666;50.156;7.700;2023-06-04T13:07:19;100722.44;;;20.36;44.23
40940;BME280;26666;50.156;7.700;2023-06-04T13:12:20;100722.97;;;20.46;44.36
40940;BME280;26666;50.156;7.700;2023-06-04T13:17:23;100726.31;;;20.48;45.58
40940;BME280;26666;50.156;7.700;2023-06-04T13:22:25;100720.16;;;20.18;46.01
40940;BME280;26666;50.156;7.700;2023-06-04T13:27:27;100711.69;;;20.06;47.11
40940;BME280;26666;50.156;7.700;2023-06-04T13:32:30;100710.13;;;20.26;46.61
40940;BME280;26666;50.156;7.700;2023-06-04T13:37:32;100707.75;;;20.17;45.71
40940;BME280;26666;50.156;7.700;2023-06-04T13:42:34;100709.84;;;20.21;44.67
40940;BME280;26666;50.156;7.700;2023-06-04T13:47:37;100718.38;;;20.25;43.90
40940;BME280;26666;50.156;7.700;2023-06-04T13:52:39;100706.63;;;20.11;45.34
40940;BME280;26666;50.156;7.700;2023-06-04T13:57:40;100703.19;;;20.32;43.80
40940;BME280;26666;50.156;7.700;2023-06-04T14:02:43;100706.59;;;20.41;43.83
40940;BME280;26666;50.156;7.700;2023-06-04T14:07:45;100697.38;;;20.14;44.55
40940;BME280;26666;50.156;7.700;2023-06-04T14:12:47;100701.91;;;20.13;44.46
40940;BME280;26666;50.156;7.700;2023-06-04T14:17:50;100690.25;;;20.06;44.06
40940;BME280;26666;50.156;7.700;2023-06-04T14:22:52;100683.78;;;20.00;44.04
40940;BME280;26666;50.156;7.700;2023-06-04T14:27:54;100684.59;;;20.31;43.50
40940;BME280;26666;50.156;7.700;2023-06-04T14:33:00;100677.13;;;20.11;44.19
40940;BME280;26666;50.156;7.700;2023-06-04T14:38:01;100689.97;;;20.16;43.65
40940;BME280;26666;50.156;7.700;2023-06-04T14:43:03;100685.34;;;20.09;44.95
40940;BME280;26666;50.156;7.700;2023-06-04T14:48:06;100670.38;;;20.00;43.90
40940;BME280;26666;50.156;7.700;2023-06-04T14:53:17;100672.69;;;20.03;43.38
40940;BME280;26666;50.156;7.700;2023-06-04T14:58:18;100659.56;;;19.94;44.85
40940;BME280;26666;50.156;7.700;2023-06-04T15:03:21;100660.38;;;19.94;43.26
40940;BME280;26666;50.156;7.700;2023-06-04T15:08:23;100663.16;;;19.86;44.91
40940;BME280;26666;50.156;7.700;2023-06-04T15:13:25;100651.69;;;19.92;43.74
40940;BME280;26666;50.156;7.700;2023-06-04T15:18:28;100650.50;;;19.80;45.83
40940;BME280;26666;50.156;7.700;2023-06-04T15:23:30;100645.69;;;19.75;46.25
40940;BME280;26666;50.156;7.700;2023-06-04T15:28:32;100646.59;;;19.82;44.87
40940;BME280;26666;50.156;7.700;2023-06-04T15:33:35;100646.06;;;19.72;46.64
40940;BME280;26666;50.156;7.700;2023-06-04T15:38:37;100654.28;;;19.85;43.81
40940;BME280;26666;50.156;7.700;2023-06-04T15:43:38;100648.00;;;19.78;44.76
40940;BME280;26666;50.156;7.700;2023-06-04T15:48:42;100641.97;;;19.76;44.79
40940;BME280;26666;50.156;7.700;2023-06-04T15:53:43;100639.94;;;19.78;43.53
40940;BME280;26666;50.156;7.700;2023-06-04T15:58:45;100644.22;;;19.87;44.35
40940;BME280;26666;50.156;7.700;2023-06-04T16:03:49;100642.44;;;19.80;44.68
40940;BME280;26666;50.156;7.700;2023-06-04T16:08:51;100640.34;;;19.75;44.36
40940;BME280;26666;50.156;7.700;2023-06-04T16:13:53;100635.22;;;19.80;43.90
40940;BME280;26666;50.156;7.700;2023-06-04T16:18:56;100638.00;;;19.72;44.29
40940;BME280;26666;50.156;7.700;2023-06-04T16:23:57;100636.91;;;19.81;43.37
40940;BME280;26666;50.156;7.700;2023-06-04T16:28:59;100635.69;;;19.84;44.06
40940;BME280;26666;50.156;7.700;2023-06-04T16:34:02;100632.53;;;19.80;42.70
40940;BME280;26666;50.156;7.700;2023-06-04T16:39:04;100628.16;;;19.64;45.16
40940;BME280;26666;50.156;7.700;2023-06-04T16:44:06;100618.47;;;19.63;42.21
40940;BME280;26666;50.156;7.700;2023-06-04T16:49:09;100637.69;;;19.67;42.14
40940;BME280;26666;50.156;7.700;2023-06-04T16:54:11;100637.19;;;19.72;43.27
40940;BME280;26666;50.156;7.700;2023-06-04T16:59:12;100633.19;;;19.67;42.39
40940;BME280;26666;50.156;7.700;2023-06-04T17:04:16;100625.97;;;19.68;43.40
40940;BME280;26666;50.156;7.700;2023-06-04T17:09:17;100629.72;;;19.59;44.44
40940;BME280;26666;50.156;7.700;2023-06-04T17:14:19;100634.44;;;19.57;43.80
40940;BME280;26666;50.156;7.700;2023-06-04T17:19:22;100631.13;;;19.55;43.90
40940;BME280;26666;50.156;7.700;2023-06-04T17:24:24;100637.50;;;19.54;43.19
40940;BME280;26666;50.156;7.700;2023-06-04T17:29:26;100637.88;;;19.50;44.22
40940;BME280;26666;50.156;7.700;2023-06-04T17:34:29;100637.41;;;19.47;43.00
40940;BME280;26666;50.156;7.700;2023-06-04T17:39:31;100632.03;;;19.47;46.30
40940;BME280;26666;50.156;7.700;2023-06-04T17:44:33;100625.03;;;19.46;45.35
40940;BME280;26666;50.156;7.700;2023-06-04T17:49:36;100633.41;;;19.43;47.31
40940;BME280;26666;50.156;7.700;2023-06-04T17:54:37;100635.91;;;19.44;45.16
40940;BME280;26666;50.156;7.700;2023-06-04T17:59:39;100637.94;;;19.42;47.04
40940;BME280;26666;50.156;7.700;2023-06-04T18:04:42;100638.94;;;19.41;45.54
40940;BME280;26666;50.156;7.700;2023-06-04T18:09:44;100640.97;;;19.39;46.54
40940;BME280;26666;50.156;7.700;2023-06-04T18:14:46;100649.66;;;19.41;46.05
40940;BME280;26666;50.156;7.700;2023-06-04T18:19:49;100649.19;;;19.38;49.46
40940;BME280;26666;50.156;7.700;2023-06-04T18:24:50;100653.72;;;19.37;48.29
40940;BME280;26666;50.156;7.700;2023-06-04T18:29:55;100657.44;;;19.36;47.91
40940;BME280;26666;50.156;7.700;2023-06-04T18:34:58;100660.47;;;19.33;50.05
40940;BME280;26666;50.156;7.700;2023-06-04T18:39:59;100667.84;;;19.31;51.48
40940;BME280;26666;50.156;7.700;2023-06-04T18:45:01;100663.78;;;19.35;51.74
40940;BME280;26666;50.156;7.700;2023-06-04T18:50:05;100664.53;;;19.29;52.81
40940;BME280;26666;50.156;7.700;2023-06-04T18:55:08;100668.41;;;19.26;51.44
40940;BME280;26666;50.156;7.700;2023-06-04T19:00:11;100666.38;;;19.28;50.24
40940;BME280;26666;50.156;7.700;2023-06-04T19:05:15;100666.38;;;19.28;50.47
40940;BME280;26666;50.156;7.700;2023-06-04T19:10:17;100669.72;;;19.30;50.71
40940;BME280;26666;50.156;7.700;2023-06-04T19:15:19;100672.91;;;19.26;51.06
40940;BME280;26666;50.156;7.700;2023-06-04T19:20:23;100674.47;;;19.20;52.05
40940;BME280;26666;50.156;7.700;2023-06-04T19:25:25;100687.09;;;19.11;52.43
40940;BME280;26666;50.156;7.700;2023-06-04T19:30:27;100686.50;;;19.01;52.31
40940;BME280;26666;50.156;7.700;2023-06-04T19:35:30;100696.75;;;18.98;52.81
40940;BME280;26666;50.156;7.700;2023-06-04T19:40:32;100699.94;;;18.93;53.11
40940;BME280;26666;50.156;7.700;2023-06-04T19:45:33;100705.53;;;18.83;52.73
40940;BME280;26666;50.156;7.700;2023-06-04T19:50:36;100707.06;;;18.78;52.47
40940;BME280;26666;50.156;7.700;2023-06-04T19:55:38;100716.63;;;18.72;52.91
40940;BME280;26666;50.156;7.700;2023-06-04T20:00:40;100717.13;;;18.67;53.73
40940;BME280;26666;50.156;7.700;2023-06-04T20:05:43;100719.19;;;18.57;54.55
40940;BME280;26666;50.156;7.700;2023-06-04T20:10:45;100726.91;;;18.52;54.66
40940;BME280;26666;50.156;7.700;2023-06-04T20:15:47;100731.97;;;18.47;54.97
40940;BME280;26666;50.156;7.700;2023-06-04T20:20:50;100737.69;;;18.36;55.65
40940;BME280;26666;50.156;7.700;2023-06-04T20:25:52;100738.38;;;18.29;56.16
40940;BME280;26666;50.156;7.700;2023-06-04T20:30:53;100748.75;;;18.24;55.61
40940;BME280;26666;50.156;7.700;2023-06-04T20:35:57;100747.75;;;18.17;56.54
40940;BME280;26666;50.156;7.700;2023-06-04T20:40:58;100756.47;;;18.11;55.89
40940;BME280;26666;50.156;7.700;2023-06-04T20:46:00;100749.66;;;18.00;56.12
40940;BME280;26666;50.156;7.700;2023-06-04T20:51:03;100759.16;;;18.03;56.15
40940;BME280;26666;50.156;7.700;2023-06-04T20:56:05;100750.63;;;17.99;56.08
40940;BME280;26666;50.156;7.700;2023-06-04T21:01:07;100768.88;;;17.87;56.13
40940;BME280;26666;50.156;7.700;2023-06-04T21:06:10;100755.00;;;17.76;56.29
40940;BME280;26666;50.156;7.700;2023-06-04T21:11:12;100772.53;;;17.70;56.72
40940;BME280;26666;50.156;7.700;2023-06-04T21:16:14;100769.03;;;17.69;56.72
40940;BME280;26666;50.156;7.700;2023-06-04T21:21:17;100778.53;;;17.64;56.93
40940;BME280;26666;50.156;7.700;2023-06-04T21:26:19;100779.88;;;17.60;56.61
40940;BME280;26666;50.156;7.700;2023-06-04T21:31:21;100782.56;;;17.51;56.87
40940;BME280;26666;50.156;7.700;2023-06-04T21:36:24;100786.22;;;17.42;56.96
40940;BME280;26666;50.156;7.700;2023-06-04T21:41:25;100778.38;;;17.41;56.97
40940;BME280;26666;50.156;7.700;2023-06-04T21:46:27;100790.03;;;17.31;57.40
40940;BME280;26666;50.156;7.700;2023-06-04T21:51:30;100789.88;;;17.33;57.52
40940;BME280;26666;50.156;7.700;2023-06-04T21:56:32;100794.69;;;17.21;57.43
40940;BME280;26666;50.156;7.700;2023-06-04T22:01:34;100795.34;;;17.15;57.48
40940;BME280;26666;50.156;7.700;2023-06-04T22:06:37;100791.66;;;17.16;57.45
40940;BME280;26666;50.156;7.700;2023-06-04T22:11:39;100787.19;;;17.08;57.56
40940;BME280;26666;50.156;7.700;2023-06-04T22:16:41;100792.66;;;16.99;57.99
40940;BME280;26666;50.156;7.700;2023-06-04T22:21:44;100791.63;;;17.00;57.86
40940;BME280;26666;50.156;7.700;2023-06-04T22:26:46;100805.47;;;16.95;57.94
40940;BME280;26666;50.156;7.700;2023-06-04T22:31:48;100789.75;;;16.84;58.56
40940;BME280;26666;50.156;7.700;2023-06-04T22:36:51;100796.06;;;16.83;58.33
40940;BME280;26666;50.156;7.700;2023-06-04T22:41:53;100803.94;;;16.84;58.35
40940;BME280;26666;50.156;7.700;2023-06-04T22:46:56;100804.84;;;16.75;58.27
40940;BME280;26666;50.156;7.700;2023-06-04T22:51:59;100805.34;;;16.70;58.88
40940;BME280;26666;50.156;7.700;2023-06-04T22:57:00;100809.81;;;16.62;58.63
40940;BME280;26666;50.156;7.700;2023-06-04T23:02:02;100810.00;;;16.68;58.49
40940;BME280;26666;50.156;7.700;2023-06-04T23:07:06;100803.63;;;16.61;58.83
40940;BME280;26666;50.156;7.700;2023-06-04T23:12:07;100804.31;;;16.63;58.44
40940;BME280;26666;50.156;7.700;2023-06-04T23:17:09;100807.59;;;16.49;58.74
40940;BME280;26666;50.156;7.700;2023-06-04T23:22:12;100810.41;;;16.47;58.55
40940;BME280;26666;50.156;7.700;2023-06-04T23:27:14;100819.34;;;16.38;58.46
40940;BME280;26666;50.156;7.700;2023-06-04T23:32:15;100818.38;;;16.39;58.90
40940;BME280;26666;50.156;7.700;2023-06-04T23:37:19;100812.13;;;16.30;58.95
40940;BME280;26666;50.156;7.700;2023-06-04T23:42:21;100821.44;;;16.26;58.78
40940;BME280;26666;50.156;7.700;2023-06-04T23:47:22;100818.44;;;16.21;59.61
40940;BME280;26666;50.156;7.700;2023-06-04T23:52:25;100817.53;;;16.12;59.58
40940;BME280;26666;50.156;7.700;2023-06-04T23:57:27;100817.38;;;16.14;59.39
